Time;durP1;ratioP1;P1;durP2;ratioP2;P2;SDS_P1;SDS_P2;PMS_P1;PMS_P2;Temp;Humidity;BMP_temperature;BMP_pressure;BME280_temperature;BME280_humidity;BME280_pressure;Samples;Min_cycle;Max_cycle;Signal;HPM_P1;HPM_P2
2022/08/06 00:02:20;;;;;;;;;;;16.80;54.10;;;;;;4941757;29;20366;-88
2022/08/06 00:04:46;;;;;;;;;;;16.80;54.10;;;;;;4958970;29;19969;-89
2022/08/06 00:07:12;;;;;;;;;;;16.80;54.20;;;;;;4958703;29;19925;-89
2022/08/06 00:09:38;;;;;;;;;;;16.70;54.30;;;;;;4958199;29;20442;-89
2022/08/06 00:12:04;;;;;;;;;;;16.80;54.40;;;;;;4958101;29;19920;-89
2022/08/06 00:14:30;;;;;;;;;;;16.70;54.40;;;;;;4941234;29;19942;-88
2022/08/06 00:16:55;;;;;;;;;;;16.70;54.40;;;;;;4941192;29;19922;-88
2022/08/06 00:19:21;;;;;;;;;;;16.70;54.40;;;;;;4940954;29;20382;-89
2022/08/06 00:21:48;;;;;;;;;;;16.60;54.30;;;;;;4958668;29;19932;-88
2022/08/06 00:24:13;;;;;;;;;;;16.60;54.50;;;;;;4941279;29;20394;-88
2022/08/06 00:26:39;;;;;;;;;;;16.60;54.80;;;;;;4956243;29;19922;-88
2022/08/06 00:29:05;;;;;;;;;;;16.50;54.90;;;;;;4940973;29;19966;-88
2022/08/06 00:31:30;;;;;;;;;;;16.50;55.10;;;;;;4957898;29;19915;-88
2022/08/06 00:33:56;;;;;;;;;;;16.50;55.10;;;;;;4958880;29;20017;-88
2022/08/06 00:36:23;;;;;;;;;;;16.50;55.00;;;;;;4932987;29;19997;-88
2022/08/06 00:38:48;;;;;;;;;;;16.40;55.00;;;;;;4923153;29;19946;-88
2022/08/06 00:41:14;;;;;;;;;;;16.40;55.00;;;;;;4939566;29;19922;-88
2022/08/06 00:43:40;;;;;;;;;;;16.40;55.00;;;;;;4939269;29;19966;-89
2022/08/06 00:46:06;;;;;;;;;;;16.30;55.00;;;;;;4939968;29;20291;-88
2022/08/06 00:48:31;;;;;;;;;;;16.30;55.00;;;;;;4922062;29;19922;-88
2022/08/06 00:50:57;;;;;;;;;;;16.30;55.10;;;;;;4925404;29;19914;-89
2022/08/06 00:55:48;;;;;;;;;;;16.20;55.30;;;;;;4950946;29;19980;-88
2022/08/06 00:58:13;;;;;;;;;;;16.20;55.30;;;;;;4957449;29;19933;-89
2022/08/06 01:00:39;;;;;;;;;;;16.20;55.40;;;;;;4958149;29;19914;-89
2022/08/06 01:03:04;;;;;;;;;;;16.10;55.50;;;;;;4941433;29;19949;-88
2022/08/06 01:05:30;;;;;;;;;;;16.10;55.40;;;;;;4956167;29;20375;-88
2022/08/06 01:07:55;;;;;;;;;;;16.00;55.30;;;;;;4958267;29;19915;-88
2022/08/06 01:10:22;;;;;;;;;;;16.00;55.40;;;;;;4940692;29;19919;-88
2022/08/06 01:12:47;;;;;;;;;;;16.00;55.50;;;;;;4958049;29;19934;-88
2022/08/06 01:15:13;;;;;;;;;;;15.90;55.60;;;;;;4956744;29;20299;-88
2022/08/06 01:17:45;;;;;;;;;;;16.00;55.60;;;;;;4958018;29;19924;-88
2022/08/06 01:20:14;;;;;;;;;;;15.90;55.80;;;;;;4957580;29;19917;-88
2022/08/06 01:22:45;;;;;;;;;;;15.90;56.00;;;;;;4958020;29;19915;-88
2022/08/06 01:25:22;;;;;;;;;;;15.90;55.90;;;;;;4957637;29;19915;-88
2022/08/06 01:27:48;;;;;;;;;;;15.80;55.90;;;;;;4940600;29;19996;-88
2022/08/06 01:30:15;;;;;;;;;;;15.80;55.90;;;;;;4957001;29;20263;-89
2022/08/06 01:32:53;;;;;;;;;;;15.80;55.90;;;;;;4939797;29;19918;-88
2022/08/06 01:35:26;;;;;;;;;;;15.70;55.90;;;;;;4956858;29;20005;-89
2022/08/06 01:37:59;;;;;;;;;;;15.70;55.90;;;;;;4957437;29;19950;-88
2022/08/06 01:40:29;;;;;;;;;;;15.70;55.80;;;;;;4957203;29;19949;-88
2022/08/06 01:42:55;;;;;;;;;;;15.60;55.80;;;;;;4939567;29;19919;-88
2022/08/06 01:45:23;;;;;;;;;;;15.60;55.90;;;;;;4939374;29;20342;-88
2022/08/06 01:47:52;;;;;;;;;;;15.50;56.00;;;;;;4939454;29;19915;-88
2022/08/06 01:50:19;;;;;;;;;;;15.50;55.90;;;;;;4939177;29;19914;-88
2022/08/06 01:52:45;;;;;;;;;;;15.40;55.90;;;;;;4956397;29;19997;-89
2022/08/06 01:55:14;;;;;;;;;;;15.40;55.90;;;;;;4956380;29;20021;-89
2022/08/06 01:57:43;;;;;;;;;;;15.30;55.90;;;;;;4956116;28;20408;-88
2022/08/06 02:00:08;;;;;;;;;;;15.30;56.00;;;;;;4962688;29;19966;-87
2022/08/06 02:02:35;;;;;;;;;;;15.30;56.00;;;;;;4943176;29;20366;-88
2022/08/06 02:05:01;;;;;;;;;;;15.30;56.10;;;;;;4960112;29;19930;-88
2022/08/06 02:07:42;;;;;;;;;;;15.20;56.20;;;;;;4959027;29;19949;-88
2022/08/06 02:10:09;;;;;;;;;;;15.20;56.10;;;;;;4927178;29;19915;-88
2022/08/06 02:12:35;;;;;;;;;;;15.20;56.10;;;;;;4960358;29;19915;-88
2022/08/06 02:15:21;;;;;;;;;;;15.20;56.10;;;;;;4957208;29;19926;-88
2022/08/06 02:17:52;;;;;;;;;;;15.10;56.20;;;;;;4957822;29;20303;-88
2022/08/06 02:20:23;;;;;;;;;;;15.10;56.30;;;;;;4959983;29;20496;-88
2022/08/06 02:22:49;;;;;;;;;;;15.10;56.60;;;;;;4942553;29;19921;-88
2022/08/06 02:25:15;;;;;;;;;;;15.10;56.70;;;;;;4942162;29;20004;-88
2022/08/06 02:27:49;;;;;;;;;;;15.10;56.70;;;;;;4958170;29;20364;-88
2022/08/06 02:30:14;;;;;;;;;;;15.10;56.60;;;;;;4959100;29;19915;-87
2022/08/06 02:32:40;;;;;;;;;;;15.20;56.60;;;;;;4959216;29;20001;-88
2022/08/06 02:35:06;;;;;;;;;;;15.10;56.60;;;;;;4941811;29;19918;-88
2022/08/06 02:37:38;;;;;;;;;;;15.10;56.50;;;;;;4942314;29;20066;-88
2022/08/06 02:40:23;;;;;;;;;;;15.10;56.50;;;;;;4956836;29;19922;-88
2022/08/06 02:43:01;;;;;;;;;;;15.10;56.50;;;;;;4957118;29;19950;-88
2022/08/06 02:45:33;;;;;;;;;;;15.10;56.50;;;;;;4941994;29;19914;-88
2022/08/06 02:48:04;;;;;;;;;;;15.10;56.50;;;;;;4958733;29;19973;-87
2022/08/06 02:50:34;;;;;;;;;;;15.10;56.70;;;;;;4938891;29;19948;-88
2022/08/06 02:53:01;;;;;;;;;;;15.00;56.70;;;;;;4958173;29;20383;-88
2022/08/06 02:55:30;;;;;;;;;;;15.10;56.80;;;;;;4940822;29;20031;-87
2022/08/06 02:58:11;;;;;;;;;;;15.00;56.80;;;;;;4941067;29;20302;-88
2022/08/06 03:00:38;;;;;;;;;;;15.00;56.70;;;;;;4957499;29;20085;-88
2022/08/06 03:03:07;;;;;;;;;;;14.90;56.70;;;;;;4941318;29;20374;-87
2022/08/06 03:05:33;;;;;;;;;;;14.90;56.70;;;;;;4956901;29;19918;-88
2022/08/06 03:08:00;;;;;;;;;;;14.90;56.90;;;;;;4958888;29;19926;-87
2022/08/06 03:10:26;;;;;;;;;;;14.90;57.20;;;;;;4957213;28;20272;-88
2022/08/06 03:12:53;;;;;;;;;;;14.90;57.20;;;;;;4944643;29;19953;-87
2022/08/06 03:15:19;;;;;;;;;;;14.90;57.30;;;;;;4941270;29;19922;-88
2022/08/06 03:17:45;;;;;;;;;;;14.90;57.50;;;;;;4958539;29;20286;-88
2022/08/06 03:20:12;;;;;;;;;;;14.80;57.50;;;;;;4957420;29;19926;-88
2022/08/06 03:22:38;;;;;;;;;;;14.80;57.40;;;;;;4958617;29;20382;-88
2022/08/06 03:25:05;;;;;;;;;;;14.80;57.40;;;;;;4957199;29;19919;-88
2022/08/06 03:27:31;;;;;;;;;;;14.80;57.30;;;;;;4958694;29;20429;-88
2022/08/06 03:29:58;;;;;;;;;;;14.80;57.20;;;;;;4958111;29;20009;-87
2022/08/06 03:32:25;;;;;;;;;;;14.80;57.20;;;;;;4925401;29;21195;-87
2022/08/06 03:34:52;;;;;;;;;;;14.80;57.30;;;;;;4940995;29;19918;-87
2022/08/06 03:37:22;;;;;;;;;;;14.80;57.40;;;;;;4941231;29;19915;-88
2022/08/06 03:39:49;;;;;;;;;;;14.70;57.70;;;;;;4939257;29;20709;-88
2022/08/06 03:42:14;;;;;;;;;;;14.70;57.90;;;;;;4957771;29;19953;-87
2022/08/06 03:44:40;;;;;;;;;;;14.70;57.90;;;;;;4958284;29;19911;-87
2022/08/06 03:47:05;;;;;;;;;;;14.70;57.90;;;;;;4941065;29;19935;-88
2022/08/06 03:49:35;;;;;;;;;;;14.70;57.60;;;;;;4938340;29;19918;-88
2022/08/06 03:52:01;;;;;;;;;;;14.70;57.60;;;;;;4940858;29;20311;-87
2022/08/06 03:54:29;;;;;;;;;;;14.60;57.50;;;;;;4957744;29;19918;-87
2022/08/06 03:56:56;;;;;;;;;;;14.60;57.50;;;;;;4940384;29;19918;-87
2022/08/06 03:59:23;;;;;;;;;;;14.50;57.50;;;;;;4957672;29;20537;-87
2022/08/06 04:01:49;;;;;;;;;;;14.60;57.40;;;;;;4940921;29;19914;-87
2022/08/06 04:04:15;;;;;;;;;;;14.50;57.60;;;;;;4958585;29;19921;-87
2022/08/06 04:06:42;;;;;;;;;;;14.50;57.80;;;;;;4958706;29;19945;-87
2022/08/06 04:09:08;;;;;;;;;;;14.60;58.10;;;;;;4955414;29;19918;-87
2022/08/06 04:11:34;;;;;;;;;;;14.80;58.60;;;;;;4941708;29;19914;-87
2022/08/06 04:13:59;;;;;;;;;;;14.80;59.20;;;;;;4941700;29;20271;-88
2022/08/06 04:16:25;;;;;;;;;;;15.00;59.50;;;;;;4942322;29;19923;-88
2022/08/06 04:18:55;;;;;;;;;;;15.20;59.80;;;;;;4940814;29;20338;-87
2022/08/06 04:21:22;;;;;;;;;;;15.40;60.00;;;;;;4958135;28;19968;-87
2022/08/06 04:23:47;;;;;;;;;;;15.70;60.30;;;;;;4941612;29;19922;-87
2022/08/06 04:26:13;;;;;;;;;;;15.90;60.60;;;;;;4941666;29;19914;-89
2022/08/06 04:28:41;;;;;;;;;;;16.20;60.90;;;;;;4941796;29;20394;-88
2022/08/06 04:31:07;;;;;;;;;;;16.50;61.00;;;;;;4959318;29;20379;-88
2022/08/06 04:33:34;;;;;;;;;;;16.90;61.30;;;;;;4959884;29;19915;-87
2022/08/06 04:36:04;;;;;;;;;;;17.30;61.20;;;;;;4959374;29;20001;-88
2022/08/06 04:38:31;;;;;;;;;;;17.60;61.20;;;;;;4943587;29;19918;-88
2022/08/06 04:40:57;;;;;;;;;;;18.00;61.00;;;;;;4957122;29;20286;-88
2022/08/06 04:43:23;;;;;;;;;;;18.30;61.00;;;;;;4958010;29;19915;-88
2022/08/06 04:45:48;;;;;;;;;;;18.70;61.10;;;;;;4958675;29;19946;-89
2022/08/06 04:48:15;;;;;;;;;;;19.10;61.10;;;;;;4959592;29;19910;-88
2022/08/06 04:50:40;;;;;;;;;;;19.50;60.80;;;;;;4941701;29;19918;-88
2022/08/06 04:53:13;;;;;;;;;;;19.80;60.50;;;;;;4941239;29;20386;-88
2022/08/06 04:55:40;;;;;;;;;;;20.20;60.40;;;;;;4957637;29;20387;-88
2022/08/06 04:58:06;;;;;;;;;;;20.70;60.20;;;;;;4957638;29;19953;-88
2022/08/06 05:00:33;;;;;;;;;;;21.00;59.80;;;;;;4958219;29;19965;-89
2022/08/06 05:02:59;;;;;;;;;;;21.50;59.30;;;;;;4941882;29;19910;-89
2022/08/06 05:05:24;;;;;;;;;;;21.80;58.90;;;;;;4959174;29;19918;-89
2022/08/06 05:07:51;;;;;;;;;;;22.20;58.70;;;;;;4959233;29;19918;-88
2022/08/06 05:10:17;;;;;;;;;;;22.60;58.10;;;;;;4956807;29;19969;-89
2022/08/06 05:12:44;;;;;;;;;;;23.00;57.50;;;;;;4954704;29;20249;-89
2022/08/06 05:15:20;;;;;;;;;;;23.30;57.20;;;;;;4957304;29;19969;-89
2022/08/06 05:18:01;;;;;;;;;;;23.70;56.80;;;;;;4957411;29;20314;-88
2022/08/06 05:20:28;;;;;;;;;;;24.10;55.60;;;;;;4957157;29;19921;-89
2022/08/06 05:22:56;;;;;;;;;;;24.40;54.70;;;;;;4940767;29;19919;-89
2022/08/06 05:25:22;;;;;;;;;;;24.80;54.10;;;;;;4942347;29;20008;-90
2022/08/06 05:27:48;;;;;;;;;;;25.20;53.20;;;;;;4941444;29;19915;-89
2022/08/06 05:30:14;;;;;;;;;;;25.60;51.20;;;;;;4941852;29;19972;-89
2022/08/06 05:32:40;;;;;;;;;;;25.80;50.30;;;;;;4941434;28;20314;-88
2022/08/06 05:35:06;;;;;;;;;;;26.20;49.50;;;;;;4960699;29;20425;-89
2022/08/06 05:37:31;;;;;;;;;;;26.50;49.10;;;;;;4961193;29;19914;-89
2022/08/06 05:39:57;;;;;;;;;;;26.90;48.40;;;;;;4944627;29;19914;-89
2022/08/06 05:42:22;;;;;;;;;;;27.30;47.50;;;;;;4959811;29;19914;-89
2022/08/06 05:44:50;;;;;;;;;;;27.80;47.10;;;;;;4960298;29;20010;-89
2022/08/06 05:47:19;;;;;;;;;;;28.30;46.30;;;;;;4961578;29;20334;-89
2022/08/06 05:49:46;;;;;;;;;;;28.80;45.20;;;;;;4943627;29;20279;-90
2022/08/06 05:52:34;;;;;;;;;;;29.30;44.00;;;;;;4943852;29;19917;-89
2022/08/06 05:55:38;;;;;;;;;;;29.80;43.40;;;;;;4943708;29;20431;-87
2022/08/06 05:58:07;;;;;;;;;;;30.30;42.00;;;;;;4882677;29;19957;-88
2022/08/06 06:00:34;;;;;;;;;;;30.80;40.80;;;;;;4866545;29;19932;-87
2022/08/06 06:03:01;;;;;;;;;;;31.20;39.30;;;;;;4906278;29;20363;-88
2022/08/06 06:05:26;;;;;;;;;;;31.50;38.50;;;;;;4946901;29;20411;-87
2022/08/06 06:07:54;;;;;;;;;;;32.00;38.00;;;;;;4946709;29;19957;-88
2022/08/06 06:10:21;;;;;;;;;;;32.30;36.90;;;;;;4961910;29;19921;-88
2022/08/06 06:12:47;;;;;;;;;;;32.60;36.00;;;;;;4942867;29;19929;-88
2022/08/06 06:15:13;;;;;;;;;;;32.90;35.50;;;;;;4958838;29;19919;-88
2022/08/06 06:17:54;;;;;;;;;;;33.30;34.80;;;;;;4942449;29;19914;-87
2022/08/06 06:20:35;;;;;;;;;;;33.50;34.30;;;;;;4943384;29;19922;-87
2022/08/06 06:23:16;;;;;;;;;;;33.80;33.10;;;;;;4961307;29;19922;-88
2022/08/06 06:25:46;;;;;;;;;;;34.10;32.60;;;;;;4959861;29;20275;-88
2022/08/06 06:28:24;;;;;;;;;;;34.40;32.70;;;;;;4957499;29;19993;-88
2022/08/06 06:30:52;;;;;;;;;;;34.80;32.10;;;;;;4936944;29;20013;-88
2022/08/06 06:33:34;;;;;;;;;;;35.10;31.10;;;;;;4936812;29;19914;-89
2022/08/06 06:36:05;;;;;;;;;;;35.30;29.90;;;;;;4940007;29;19957;-90
2022/08/06 06:38:33;;;;;;;;;;;35.60;29.30;;;;;;4960396;29;19915;-89
2022/08/06 06:41:02;;;;;;;;;;;35.80;29.40;;;;;;4942571;29;19914;-88
2022/08/06 06:43:38;;;;;;;;;;;36.10;28.70;;;;;;4959850;29;20382;-87
2022/08/06 06:46:06;;;;;;;;;;;36.20;28.70;;;;;;4960023;28;20022;-87
2022/08/06 06:48:34;;;;;;;;;;;36.50;28.80;;;;;;4959806;29;19921;-88
2022/08/06 06:51:03;;;;;;;;;;;36.80;28.10;;;;;;4942773;29;19996;-87
2022/08/06 06:53:31;;;;;;;;;;;37.00;27.50;;;;;;4927001;29;19966;-87
2022/08/06 06:55:58;;;;;;;;;;;37.20;26.70;;;;;;4976503;28;19968;-87
2022/08/06 06:58:31;;;;;;;;;;;37.40;26.60;;;;;;4961223;28;19949;-89
2022/08/06 07:00:56;;;;;;;;;;;37.60;26.70;;;;;;4977974;28;19954;-88
2022/08/06 07:03:23;;;;;;;;;;;37.80;26.40;;;;;;4964220;28;19922;-89
2022/08/06 07:05:49;;;;;;;;;;;38.00;26.20;;;;;;4960973;28;19933;-88
2022/08/06 07:08:16;;;;;;;;;;;38.30;25.90;;;;;;4957800;29;19914;-88
2022/08/06 07:10:43;;;;;;;;;;;38.50;24.10;;;;;;4941950;29;19961;-89
2022/08/06 07:13:09;;;;;;;;;;;38.70;23.90;;;;;;4942538;29;19933;-89
2022/08/06 07:15:35;;;;;;;;;;;38.80;24.00;;;;;;4972885;28;20056;-89
2022/08/06 07:18:04;;;;;;;;;;;39.10;23.10;;;;;;4961734;28;19946;-89
2022/08/06 07:20:30;;;;;;;;;;;39.20;22.50;;;;;;4979307;28;19973;-89
2022/08/06 07:22:57;;;;;;;;;;;39.10;21.60;;;;;;4979304;28;19914;-89
2022/08/06 07:25:24;;;;;;;;;;;39.00;21.10;;;;;;4960059;28;19922;-89
2022/08/06 07:27:50;;;;;;;;;;;38.80;20.90;;;;;;4971672;28;19910;-89
2022/08/06 07:30:17;;;;;;;;;;;38.70;20.40;;;;;;4958581;29;19972;-89
2022/08/06 07:32:45;;;;;;;;;;;38.50;20.30;;;;;;4946697;28;20037;-89
2022/08/06 07:35:11;;;;;;;;;;;38.30;20.30;;;;;;4959214;28;20259;-89
2022/08/06 07:37:37;;;;;;;;;;;38.30;20.50;;;;;;4977785;28;19922;-90
2022/08/06 07:40:05;;;;;;;;;;;38.30;20.50;;;;;;4978581;28;20005;-90
2022/08/06 07:42:33;;;;;;;;;;;38.30;20.90;;;;;;4957471;29;19961;-89
2022/08/06 07:45:00;;;;;;;;;;;38.30;20.60;;;;;;4949912;28;19961;-88
2022/08/06 07:47:32;;;;;;;;;;;38.30;20.60;;;;;;4960912;28;19933;-88
2022/08/06 07:50:01;;;;;;;;;;;38.50;20.90;;;;;;4961187;28;19921;-88
2022/08/06 07:52:26;;;;;;;;;;;38.60;21.30;;;;;;4976441;28;19992;-89
2022/08/06 07:54:53;;;;;;;;;;;38.90;21.40;;;;;;4978131;28;19922;-88
2022/08/06 07:57:19;;;;;;;;;;;39.20;21.30;;;;;;4977237;28;19910;-89
2022/08/06 07:59:50;;;;;;;;;;;39.50;21.10;;;;;;4967387;28;20029;-89
2022/08/06 08:02:16;;;;;;;;;;;39.80;20.70;;;;;;4940900;29;19926;-90
2022/08/06 08:07:31;;;;;;;;;;;40.20;20.10;;;;;;4958224;29;19921;-88
2022/08/06 08:09:57;;;;;;;;;;;40.30;19.40;;;;;;4958711;29;19950;-88
2022/08/06 08:12:23;;;;;;;;;;;40.30;18.50;;;;;;4958933;29;19946;-89
2022/08/06 08:14:50;;;;;;;;;;;40.20;18.70;;;;;;4922374;29;20307;-88
2022/08/06 08:17:16;;;;;;;;;;;40.20;18.70;;;;;;4937989;29;19974;-88
2022/08/06 08:19:42;;;;;;;;;;;40.20;18.70;;;;;;4938225;29;19911;-89
2022/08/06 08:22:11;;;;;;;;;;;40.30;18.90;;;;;;4937982;29;20342;-89
2022/08/06 08:24:37;;;;;;;;;;;40.50;18.60;;;;;;4939119;29;19953;-90
2022/08/06 08:27:03;;;;;;;;;;;40.50;18.20;;;;;;4924863;29;20385;-90
2022/08/06 08:29:29;;;;;;;;;;;40.50;17.80;;;;;;4928946;29;19914;-88
2022/08/06 08:31:56;;;;;;;;;;;40.60;18.00;;;;;;4951692;28;21822;-89
2022/08/06 08:34:23;;;;;;;;;;;40.70;17.80;;;;;;4975777;28;19914;-90
2022/08/06 08:36:48;;;;;;;;;;;40.70;18.30;;;;;;4953084;29;20017;-89
2022/08/06 08:39:17;;;;;;;;;;;40.90;18.50;;;;;;4941513;29;20337;-89
2022/08/06 08:41:46;;;;;;;;;;;41.20;17.90;;;;;;4941770;29;19918;-90
2022/08/06 08:44:12;;;;;;;;;;;41.30;17.40;;;;;;4958122;29;19911;-89
2022/08/06 08:46:40;;;;;;;;;;;41.40;17.60;;;;;;4941302;29;19918;-89
2022/08/06 08:49:07;;;;;;;;;;;41.50;16.90;;;;;;4958016;29;19918;-89
2022/08/06 08:51:34;;;;;;;;;;;41.70;17.10;;;;;;4940911;29;20379;-89
2022/08/06 08:54:01;;;;;;;;;;;41.80;17.00;;;;;;4941893;29;19917;-89
2022/08/06 08:56:27;;;;;;;;;;;41.90;16.70;;;;;;4959412;29;19965;-89
2022/08/06 08:58:53;;;;;;;;;;;42.00;16.50;;;;;;4925847;29;19919;-90
2022/08/06 09:01:20;;;;;;;;;;;42.00;16.30;;;;;;4958493;28;20064;-89
2022/08/06 09:03:46;;;;;;;;;;;42.00;16.20;;;;;;4960544;28;20081;-88
2022/08/06 09:06:11;;;;;;;;;;;41.90;15.90;;;;;;4958718;29;19915;-89
2022/08/06 09:08:40;;;;;;;;;;;41.80;15.90;;;;;;4957591;29;19923;-89
2022/08/06 09:11:06;;;;;;;;;;;41.80;16.00;;;;;;4963413;28;19914;-89
2022/08/06 09:13:31;;;;;;;;;;;41.80;15.90;;;;;;4977196;28;19929;-89
2022/08/06 09:15:57;;;;;;;;;;;41.90;16.40;;;;;;4976719;28;19914;-89
2022/08/06 09:18:24;;;;;;;;;;;42.20;16.60;;;;;;4977473;28;19965;-89
2022/08/06 09:20:49;;;;;;;;;;;42.30;15.40;;;;;;4950073;29;19926;-89
2022/08/06 09:23:16;;;;;;;;;;;42.20;15.50;;;;;;4938109;29;19943;-89
2022/08/06 09:25:43;;;;;;;;;;;42.00;15.60;;;;;;4937202;29;19915;-87
2022/08/06 09:28:25;;;;;;;;;;;41.90;15.60;;;;;;4938948;29;19919;-88
2022/08/06 09:31:04;;;;;;;;;;;42.00;15.90;;;;;;4938235;29;19914;-89
2022/08/06 09:33:31;;;;;;;;;;;42.10;16.20;;;;;;4936883;29;19973;-89
2022/08/06 09:36:06;;;;;;;;;;;42.10;15.90;;;;;;4935003;29;19925;-88
2022/08/06 09:38:44;;;;;;;;;;;42.20;16.10;;;;;;4935578;29;19925;-88
2022/08/06 09:41:10;;;;;;;;;;;42.20;15.10;;;;;;4935307;29;19919;-89
2022/08/06 09:43:36;;;;;;;;;;;42.00;14.90;;;;;;4937294;29;20013;-89
2022/08/06 09:46:02;;;;;;;;;;;41.90;15.30;;;;;;4938859;29;19918;-89
2022/08/06 09:48:27;;;;;;;;;;;41.90;15.50;;;;;;4955170;29;20358;-89
2022/08/06 09:50:53;;;;;;;;;;;42.10;15.40;;;;;;4938603;29;19968;-89
2022/08/06 09:53:21;;;;;;;;;;;42.10;15.00;;;;;;4946708;29;20466;-89
2022/08/06 09:55:49;;;;;;;;;;;42.30;14.90;;;;;;4955533;29;19966;-89
2022/08/06 09:58:35;;;;;;;;;;;42.30;14.60;;;;;;4956136;29;19929;-88
2022/08/06 10:01:16;;;;;;;;;;;42.30;15.00;;;;;;4939472;29;19910;-88
2022/08/06 10:03:42;;;;;;;;;;;42.50;15.40;;;;;;4956044;29;20375;-89
2022/08/06 10:06:13;;;;;;;;;;;42.70;15.20;;;;;;4938765;29;19915;-89
2022/08/06 10:08:39;;;;;;;;;;;42.80;14.70;;;;;;4955277;29;19914;-90
2022/08/06 10:11:06;;;;;;;;;;;42.40;14.50;;;;;;4956118;29;19973;-88
2022/08/06 10:13:32;;;;;;;;;;;41.70;15.00;;;;;;4955852;29;20382;-88
2022/08/06 10:15:59;;;;;;;;;;;41.30;15.70;;;;;;4939742;29;20025;-90
2022/08/06 10:18:29;;;;;;;;;;;41.50;15.90;;;;;;4940772;29;19930;-89
2022/08/06 10:21:01;;;;;;;;;;;42.00;15.80;;;;;;4939203;29;19929;-88
2022/08/06 10:23:26;;;;;;;;;;;42.40;15.00;;;;;;4942718;29;19914;-88
2022/08/06 10:25:52;;;;;;;;;;;42.30;14.60;;;;;;4941874;29;20475;-89
2022/08/06 10:28:18;;;;;;;;;;;42.20;14.60;;;;;;4958294;29;19918;-89
2022/08/06 10:30:46;;;;;;;;;;;41.90;14.70;;;;;;4949726;29;19911;-89
2022/08/06 10:33:12;;;;;;;;;;;41.80;14.70;;;;;;4958532;29;20446;-88
2022/08/06 10:35:40;;;;;;;;;;;41.80;14.70;;;;;;4959177;29;19933;-89
2022/08/06 10:38:06;;;;;;;;;;;41.90;14.20;;;;;;4958162;29;20383;-89
2022/08/06 10:40:33;;;;;;;;;;;41.90;14.30;;;;;;4940925;29;19918;-89
2022/08/06 10:43:02;;;;;;;;;;;42.20;13.70;;;;;;4940937;29;19918;-89
2022/08/06 10:45:27;;;;;;;;;;;42.10;13.10;;;;;;4941245;29;19957;-89
2022/08/06 10:47:53;;;;;;;;;;;41.90;13.20;;;;;;4957400;29;19914;-88
2022/08/06 10:50:20;;;;;;;;;;;42.00;13.20;;;;;;4958589;29;19925;-89
2022/08/06 10:52:46;;;;;;;;;;;42.20;13.50;;;;;;4958372;29;19914;-89
2022/08/06 10:55:12;;;;;;;;;;;42.60;13.60;;;;;;4940832;29;19925;-89
2022/08/06 10:57:38;;;;;;;;;;;43.00;13.80;;;;;;4940175;29;19954;-89
2022/08/06 11:00:05;;;;;;;;;;;43.30;13.30;;;;;;4940778;29;19925;-90
2022/08/06 11:02:50;;;;;;;;;;;43.60;13.60;;;;;;4958120;29;19915;-89
2022/08/06 11:05:16;;;;;;;;;;;43.80;12.70;;;;;;4942827;29;19914;-90
2022/08/06 11:07:56;;;;;;;;;;;43.30;12.30;;;;;;4942219;29;19922;-89
2022/08/06 11:10:21;;;;;;;;;;;43.10;12.60;;;;;;4940980;29;20282;-89
2022/08/06 11:12:52;;;;;;;;;;;42.90;12.60;;;;;;4940285;29;19915;-89
2022/08/06 11:15:19;;;;;;;;;;;42.60;12.80;;;;;;4958136;29;19923;-89
2022/08/06 11:17:50;;;;;;;;;;;42.60;13.00;;;;;;4940737;29;19920;-89
2022/08/06 11:20:36;;;;;;;;;;;42.70;13.40;;;;;;4957012;29;19946;-88
2022/08/06 11:23:02;;;;;;;;;;;43.00;13.40;;;;;;4957595;29;19922;-89
2022/08/06 11:25:38;;;;;;;;;;;43.30;13.70;;;;;;4940101;29;20292;-89
2022/08/06 11:28:04;;;;;;;;;;;43.80;13.50;;;;;;4957546;29;20496;-88
2022/08/06 11:30:45;;;;;;;;;;;44.20;12.70;;;;;;4940332;28;19914;-89
2022/08/06 11:33:11;;;;;;;;;;;44.00;12.70;;;;;;4955659;29;19918;-88
2022/08/06 11:35:36;;;;;;;;;;;43.40;12.60;;;;;;4957305;29;19930;-89
2022/08/06 11:38:03;;;;;;;;;;;42.20;12.90;;;;;;4956049;29;19993;-89
2022/08/06 11:40:48;;;;;;;;;;;40.90;13.60;;;;;;4955859;29;19918;-89
2022/08/06 11:43:34;;;;;;;;;;;40.10;14.50;;;;;;4956907;29;19918;-89
2022/08/06 11:46:19;;;;;;;;;;;40.20;14.70;;;;;;4938857;29;19921;-89
2022/08/06 11:48:56;;;;;;;;;;;40.80;14.60;;;;;;4939069;29;19915;-89
2022/08/06 11:51:37;;;;;;;;;;;41.20;13.60;;;;;;4955289;29;19919;-88
2022/08/06 11:54:07;;;;;;;;;;;41.00;12.60;;;;;;4955287;29;19937;-89
2022/08/06 11:56:33;;;;;;;;;;;40.20;13.20;;;;;;4939927;29;19926;-89
2022/08/06 11:59:10;;;;;;;;;;;40.20;13.60;;;;;;4938802;29;19986;-89
2022/08/06 12:01:46;;;;;;;;;;;40.80;13.80;;;;;;4938658;29;20398;-90
2022/08/06 12:04:30;;;;;;;;;;;40.70;13.90;;;;;;4939616;29;19918;-89
2022/08/06 12:07:15;;;;;;;;;;;40.90;14.30;;;;;;4956755;29;20501;-89
2022/08/06 12:09:40;;;;;;;;;;;41.40;14.20;;;;;;4938175;29;19915;-89
2022/08/06 12:12:24;;;;;;;;;;;40.70;13.90;;;;;;4954322;29;20294;-88
2022/08/06 12:14:50;;;;;;;;;;;40.00;14.20;;;;;;4954025;29;20280;-89
2022/08/06 12:17:19;;;;;;;;;;;39.60;14.30;;;;;;4938981;29;20026;-89
2022/08/06 12:19:46;;;;;;;;;;;38.80;14.50;;;;;;4938841;29;20323;-89
2022/08/06 12:22:13;;;;;;;;;;;38.20;15.10;;;;;;4939197;29;19953;-89
2022/08/06 12:24:39;;;;;;;;;;;38.60;15.20;;;;;;4938792;29;19965;-89
2022/08/06 12:27:08;;;;;;;;;;;38.90;15.20;;;;;;4954958;29;19954;-89
2022/08/06 12:29:34;;;;;;;;;;;39.20;15.10;;;;;;4955177;29;20244;-89
2022/08/06 12:31:59;;;;;;;;;;;39.70;15.10;;;;;;4954195;29;19930;-88
2022/08/06 12:34:25;;;;;;;;;;;40.20;15.00;;;;;;4938128;29;19934;-89
2022/08/06 12:37:00;;;;;;;;;;;40.80;14.80;;;;;;4938163;29;20013;-89
2022/08/06 12:40:23;;;;;;;;;;;41.30;14.80;;;;;;4937261;29;19963;-89
2022/08/06 12:42:21;;;;;;;;;;;41.90;14.60;;;;;;4954978;28;19910;-89
2022/08/06 12:44:47;;;;;;;;;;;42.40;14.30;;;;;;4954606;29;19919;-90
2022/08/06 12:47:12;;;;;;;;;;;42.90;14.30;;;;;;4955225;29;19911;-91
2022/08/06 12:49:38;;;;;;;;;;;43.40;14.20;;;;;;4954412;29;19919;-90
2022/08/06 12:52:11;;;;;;;;;;;43.90;13.80;;;;;;4954713;29;19921;-89
2022/08/06 12:54:36;;;;;;;;;;;44.40;13.60;;;;;;4938203;29;20390;-90
2022/08/06 12:57:02;;;;;;;;;;;44.70;13.50;;;;;;4954955;29;19922;-90
2022/08/06 12:59:27;;;;;;;;;;;44.80;12.90;;;;;;4938812;29;20378;-91
2022/08/06 13:01:53;;;;;;;;;;;44.20;12.50;;;;;;4938468;29;19926;-90
2022/08/06 13:04:19;;;;;;;;;;;43.50;12.40;;;;;;4938481;29;19915;-89
2022/08/06 13:06:45;;;;;;;;;;;42.30;12.60;;;;;;4938022;29;19954;-89
2022/08/06 13:09:11;;;;;;;;;;;40.90;13.30;;;;;;4938169;29;19962;-89
2022/08/06 13:11:37;;;;;;;;;;;40.20;14.00;;;;;;4937970;29;19923;-88
2022/08/06 13:14:12;;;;;;;;;;;40.20;14.20;;;;;;4924120;29;19925;-88
2022/08/06 13:16:39;;;;;;;;;;;40.40;14.30;;;;;;4929026;29;19922;-88
2022/08/06 13:21:30;;;;;;;;;;;40.90;14.10;;;;;;4953581;29;20391;-88
2022/08/06 13:23:56;;;;;;;;;;;40.80;14.20;;;;;;4938216;29;20283;-87
2022/08/06 13:26:23;;;;;;;;;;;40.20;14.40;;;;;;4937077;29;19919;-87
2022/08/06 13:29:09;;;;;;;;;;;39.30;14.90;;;;;;4938036;29;19919;-88
2022/08/06 13:31:35;;;;;;;;;;;38.30;15.00;;;;;;4954955;29;19926;-87
2022/08/06 13:34:02;;;;;;;;;;;37.20;15.60;;;;;;4937702;29;20024;-88
2022/08/06 13:36:28;;;;;;;;;;;36.40;16.30;;;;;;4954686;29;19919;-87
2022/08/06 13:38:54;;;;;;;;;;;35.80;16.80;;;;;;4938102;29;20073;-86
2022/08/06 13:41:26;;;;;;;;;;;35.30;17.10;;;;;;4953815;29;20049;-88
2022/08/06 13:43:52;;;;;;;;;;;34.80;17.60;;;;;;4955079;29;20290;-88
2022/08/06 13:46:17;;;;;;;;;;;34.30;17.80;;;;;;4954808;29;20283;-88
2022/08/06 13:48:48;;;;;;;;;;;33.90;17.80;;;;;;4953719;29;19923;-88
2022/08/06 13:51:14;;;;;;;;;;;33.50;18.10;;;;;;4937881;29;19911;-89
2022/08/06 13:53:40;;;;;;;;;;;33.20;18.40;;;;;;4937372;28;19961;-88
2022/08/06 13:56:05;;;;;;;;;;;33.00;18.70;;;;;;4957056;29;19965;-87
2022/08/06 13:58:31;;;;;;;;;;;32.80;18.90;;;;;;4941517;29;19914;-88
2022/08/06 14:00:57;;;;;;;;;;;32.70;19.20;;;;;;4958234;29;19914;-88
2022/08/06 14:03:23;;;;;;;;;;;32.70;19.20;;;;;;4958083;29;20331;-88
2022/08/06 14:05:48;;;;;;;;;;;32.60;19.00;;;;;;4940345;29;20382;-88
2022/08/06 14:08:14;;;;;;;;;;;32.40;19.20;;;;;;4957810;29;19915;-88
2022/08/06 14:10:39;;;;;;;;;;;32.20;19.50;;;;;;4957657;29;19915;-87
2022/08/06 14:13:17;;;;;;;;;;;32.30;19.80;;;;;;4941312;29;19918;-88
2022/08/06 14:15:43;;;;;;;;;;;32.30;19.80;;;;;;4942874;29;19918;-88
2022/08/06 14:18:09;;;;;;;;;;;32.20;19.90;;;;;;4942085;29;19915;-88
2022/08/06 14:20:35;;;;;;;;;;;32.10;19.90;;;;;;4942209;29;19922;-88
2022/08/06 14:23:00;;;;;;;;;;;32.10;20.20;;;;;;4942126;29;20251;-88
2022/08/06 14:25:26;;;;;;;;;;;32.00;20.30;;;;;;4942553;29;19962;-89
2022/08/06 14:27:53;;;;;;;;;;;31.90;20.30;;;;;;4941837;29;20439;-87
2022/08/06 14:30:20;;;;;;;;;;;31.80;20.20;;;;;;4942682;29;20001;-88
2022/08/06 14:32:45;;;;;;;;;;;31.70;20.40;;;;;;4959904;29;19921;-88